Latest Weather Observations for Emerald

IDQ60801

Issued at 11:02 pm EST Saturday 19 August 2017 (issued every 30 minutes, with the page automatically refreshed every 10 minutes)

About weather observations | Map of weather stations | Latest weather observations for QLD | Other Formats
Station Details ID: 035264 Name: EMERALD AIRPORT Lat: -23.57 Lon: 148.18 Height: 189.4 m
Data from the previous 72 hours. | See also: Recent months at Emerald
Date/Time
EST
Temp
°C
App
Temp
°C
Dew
Point
°C
Rel
Hum
%
Delta-T
°C
Wind Press
QNH
hPa
Press
MSL
hPa
Rain since
9am
mm
Dir  Spd
km/h
Gust
km/h
Spd
kts
Gust
kts
19/11:00pm 14.5 8.2 -5.8 24 7.6 SSE 19 26 10 14 1021.0 - 0.0
19/10:30pm 14.8 8.9 -6.1 23 7.8 SSE 17 22 9 12 1021.1 - 0.0
19/10:00pm 15.3 9.4 -5.7 23 7.9 S 17 20 9 11 1020.9 - 0.0
19/09:30pm 14.7 10.0 -4.6 26 7.4 SSW 11 13 6 7 1020.7 - 0.0
19/09:00pm 16.6 12.3 -4.6 23 8.3 WSW 9 13 5 7 1020.6 1020.3 0.0
19/08:30pm 15.0 10.9 -3.3 28 7.3 SE 9 11 5 6 1020.2 - 0.0
19/08:00pm 16.5 12.1 -2.5 27 7.8 S 11 13 6 7 1019.9 - 0.0
19/07:30pm 17.6 13.2 -2.6 25 8.4 SSW 11 13 6 7 1019.4 - 0.0
19/07:00pm 18.9 15.2 -3.3 22 9.2 S 7 11 4 6 1018.8 - 0.0
19/06:30pm 20.2 15.6 -4.1 19 10.0 S 11 20 6 11 1018.2 - 0.0
19/06:00pm 22.0 16.1 -5.8 15 11.2 SW 17 24 9 13 1017.8 1017.5 0.0
19/05:30pm 23.8 16.9 -6.2 13 12.3 WSW 22 30 12 16 1017.4 - 0.0
19/05:00pm 24.5 16.6 -9.1 10 13.1 SW 26 33 14 18 1017.1 - 0.0
19/04:30pm 25.1 18.2 -10.0 9 13.5 WSW 20 26 11 14 1016.9 - 0.0
19/04:00pm 25.2 18.7 -8.5 10 13.4 WSW 19 26 10 14 1016.8 - 0.0
19/03:30pm 25.4 18.4 -7.2 11 13.3 WSW 22 33 12 18 1016.9 - 0.0
19/03:00pm 24.5 18.1 -6.7 12 12.7 WSW 19 30 10 16 1017.1 1016.8 0.0
19/02:30pm 23.9 19.7 -4.3 15 12.0 SSE 9 17 5 9 1017.6 - 0.0
19/02:00pm 23.6 19.0 -4.5 15 11.8 SW 11 22 6 12 1017.9 - 0.0
19/01:30pm 22.4 16.6 -4.6 16 11.2 S 17 26 9 14 1018.5 - 0.0
19/01:00pm 22.8 17.1 -3.5 17 11.2 SSE 17 26 9 14 1019.1 - 0.0
19/12:30pm 21.9 15.3 -3.5 18 10.7 S 22 30 12 16 1019.8 - 0.0
19/12:00pm 20.5 14.5 -1.9 22 9.6 SSE 20 28 11 15 1020.4 1020.0 0.0
19/11:30am 20.9 14.4 -2.2 21 9.9 SSW 22 30 12 16 1021.0 - 0.0
19/11:00am 19.8 13.5 -0.8 25 9.0 SSE 22 35 12 19 1021.5 - 0.0
19/10:30am 19.2 12.6 -0.7 26 8.7 S 24 33 13 18 1022.0 - 0.0
19/10:00am 18.0 10.1 -1.8 26 8.4 S 30 39 16 21 1022.2 - 0.0
19/09:30am 17.4 9.9 -1.3 28 7.9 SSE 28 41 15 22 1022.4 - 0.0
19/09:00am 16.9 9.4 -1.7 28 7.8 SSE 28 33 15 18 1022.5 1022.2 0.0
19/08:30am 15.9 8.6 -2.6 28 7.5 SSE 26 35 14 19 1022.6 - 0.0
19/08:00am 14.8 8.2 -3.0 29 7.1 SSE 22 35 12 19 1022.4 - 0.0
19/07:30am 12.8 7.1 -3.5 32 6.3 SSE 17 22 9 12 1022.0 - 0.0
19/07:00am 10.2 5.2 -4.6 35 5.4 SSE 13 15 7 8 1021.6 - 0.0
19/06:30am 9.6 4.2 -4.7 36 5.2 S 15 20 8 11 1021.1 - 0.0
19/06:00am 10.6 4.8 -5.0 33 5.7 S 17 22 9 12 1020.8 1020.5 0.0
19/05:30am 11.5 6.0 -5.0 31 6.1 S 15 20 8 11 1020.4 - 0.0
19/05:00am 10.5 5.9 -3.9 36 5.4 S 11 15 6 8 1019.9 - 0.0
19/04:30am 11.5 7.8 -5.0 31 6.1 SSW 6 11 3 6 1019.5 - 0.0
19/04:00am 11.4 7.1 -5.1 31 6.0 S 9 11 5 6 1019.3 - 0.0
19/03:30am 11.9 6.9 -4.2 32 6.1 SSW 13 15 7 8 1018.9 - 0.0
19/03:00am 11.4 7.5 -1.4 41 5.1 SW 9 11 5 6 1019.1 1018.8 0.0
19/02:30am 12.4 8.6 -3.4 33 6.1 SSW 7 13 4 7 1019.0 - 0.0
19/02:00am 13.3 9.5 -3.4 31 6.5 SSW 7 9 4 5 1019.3 - 0.0
19/01:30am 14.0 10.4 -2.4 32 6.6 SSW 7 7 4 4 1019.4 - 0.0
19/01:00am 14.5 11.0 -1.2 34 6.5 S 7 7 4 4 1019.5 - 0.0
19/12:30am 15.4 11.0 -2.1 30 7.2 S 11 13 6 7 1019.5 - 0.0
19/12:00am 15.5 10.8 -1.5 31 7.0 S 13 15 7 8 1019.4 1019.0 0.0
 
Date/Time
EST
Temp
°C
App
Temp
°C
Dew
Point
°C
Rel
Hum
%
Delta-T
°C
Wind Press
QNH
hPa
Press
MSL
hPa
Rain since
9am
mm
Dir  Spd
km/h
Gust
km/h
Spd
kts
Gust
kts
18/11:30pm 17.1 11.7 -1.1 29 7.7 S 17 20 9 11 1019.5 - 0.0
18/11:00pm 17.8 13.3 -0.5 29 7.9 S 13 19 7 10 1019.5 - 0.0
18/10:30pm 18.3 14.2 0.0 29 8.0 SSW 11 15 6 8 1019.0 - 0.0
18/10:00pm 19.2 15.1 2.1 32 7.9 SW 13 17 7 9 1018.9 - 0.0
18/09:30pm 20.8 16.5 3.1 31 8.4 SW 15 15 8 8 1018.6 - 0.0
18/09:00pm 22.3 17.6 2.9 28 9.3 SW 17 20 9 11 1018.4 1018.1 0.0
18/08:30pm 23.0 18.4 3.5 28 9.5 SW 17 20 9 11 1018.1 - 0.0
18/08:00pm 23.6 19.4 4.0 28 9.7 SSW 15 19 8 10 1017.7 - 0.0
18/07:30pm 24.5 19.7 4.8 28 10.0 SW 19 28 10 15 1017.2 - 0.0
18/07:00pm 24.5 20.4 4.3 27 10.1 SSW 15 17 8 9 1016.6 - 0.0
18/06:30pm 25.5 21.4 4.6 26 10.6 SSW 15 17 8 9 1016.1 - 0.0
18/06:00pm 26.8 23.2 5.1 25 11.2 SSW 13 19 7 10 1015.7 1015.3 0.0
18/05:30pm 28.9 23.6 5.1 22 12.4 SSW 22 30 12 16 1015.3 - 0.0
18/05:00pm 30.5 24.8 5.0 20 13.4 SW 24 32 13 17 1015.0 - 0.0
18/04:30pm 31.4 25.6 4.2 18 14.2 SW 24 35 13 19 1014.8 - 0.0
18/04:00pm 31.7 24.6 3.7 17 14.5 SW 30 39 16 21 1014.5 - 0.0
18/03:30pm 32.0 26.5 3.9 17 14.6 SW 22 35 12 19 1014.4 - 0.0
18/03:00pm 32.0 26.9 3.9 17 14.6 WSW 20 32 11 17 1014.5 1014.1 0.0
18/02:30pm 31.6 26.3 5.2 19 14.0 WSW 22 35 12 19 1014.9 - 0.0
18/02:00pm 30.6 27.2 5.8 21 13.2 WSW 13 24 7 13 1015.3 - 0.0
18/01:30pm 29.5 25.8 6.2 23 12.4 SW 15 28 8 15 1015.8 - 0.0
18/01:00pm 30.0 26.8 5.3 21 13.0 WSW 11 22 6 12 1016.2 - 0.0
18/12:30pm 29.1 25.7 1.6 17 13.5 S 9 15 5 8 1016.8 - 0.0
18/12:00pm 28.3 24.6 0.1 16 13.4 SSE 9 15 5 8 1017.5 1017.2 0.0
18/11:30am 28.2 23.2 -0.9 15 13.6 SSE 15 19 8 10 1018.2 - 0.0
18/11:00am 27.8 23.3 4.2 22 12.1 S 17 24 9 13 1018.6 - 0.0
18/10:30am 26.9 21.5 2.7 21 12.0 SSE 20 28 11 15 1019.0 - 0.0
18/10:00am 26.6 20.7 1.8 20 12.0 SSE 22 30 12 16 1019.3 - 0.0
18/09:30am 25.9 19.3 1.9 21 11.6 SE 26 32 14 17 1019.4 - 0.0
18/09:00am 25.4 19.1 4.0 25 10.7 SSE 26 35 14 19 1019.0 1018.7 0.0
18/08:30am 23.5 18.4 4.0 28 9.6 SSE 20 28 11 15 1018.6 - 0.0
18/08:00am 21.2 17.7 5.5 36 7.9 SSE 13 19 7 10 1018.3 - 0.0
18/07:30am 18.6 16.2 7.1 47 5.8 SSW 9 13 5 7 1018.0 - 0.0
18/07:00am 16.8 14.6 7.7 55 4.6 SSW 9 15 5 8 1017.7 - 0.0
18/06:30am 15.8 14.1 8.3 61 3.8 SSW 7 11 4 6 1017.3 - 0.0
18/06:00am 15.7 14.8 9.4 66 3.3 WSW 4 7 2 4 1016.9 1016.6 0.0
18/05:30am 15.0 13.3 10.0 72 2.6 S 9 13 5 7 1016.4 - 0.0
18/05:00am 16.2 14.8 8.9 62 3.8 SW 6 7 3 4 1016.0 - 0.0
18/04:30am 17.0 15.3 8.4 57 4.4 SW 7 13 4 7 1015.7 - 0.0
18/04:00am 17.0 14.9 8.2 56 4.5 SW 9 11 5 6 1015.3 - 0.0
18/03:30am 16.4 14.2 7.9 57 4.3 SSW 9 11 5 6 1015.2 - 0.0
18/03:00am 16.9 14.8 8.3 57 4.4 SW 9 11 5 6 1015.2 1014.8 0.0
18/02:30am 16.7 14.4 7.6 55 4.6 SSW 9 11 5 6 1015.2 - 0.0
18/02:00am 18.2 17.7 7.9 51 5.3 CALM 0 0 0 0 1015.1 - 0.0
18/01:30am 18.7 18.3 8.1 50 5.5 CALM 0 0 0 0 1015.1 - 0.0
18/01:00am 19.4 17.2 7.8 47 6.0 SE 9 11 5 6 1015.1 - 0.0
18/12:30am 20.5 18.0 8.2 45 6.5 SSE 11 15 6 8 1015.4 - 0.0
18/12:00am 20.5 18.5 8.5 46 6.3 S 9 13 5 7 1015.4 1015.0 0.0
 
Date/Time
EST
Temp
°C
App
Temp
°C
Dew
Point
°C
Rel
Hum
%
Delta-T
°C
Wind Press
QNH
hPa
Press
MSL
hPa
Rain since
9am
mm
Dir  Spd
km/h
Gust
km/h
Spd
kts
Gust
kts
17/11:30pm 21.2 18.3 8.1 43 6.9 SSW 13 15 7 8 1015.4 - 0.0
17/11:00pm 23.5 19.8 8.0 37 8.3 WSW 17 20 9 11 1015.2 - 0.0
17/10:30pm 25.2 20.6 8.2 34 9.2 SW 22 28 12 15 1015.0 - 0.0
17/10:00pm 20.8 19.0 9.4 48 6.1 WNW 9 15 5 8 1014.9 - 0.0
17/09:30pm 21.5 21.1 8.4 43 6.9 CALM 0 0 0 0 1014.5 - 0.0
17/09:00pm 22.3 21.1 8.1 40 7.5 SSW 4 6 2 3 1014.5 1014.1 0.0
17/08:30pm 23.3 21.1 7.8 37 8.2 SW 9 11 5 6 1014.4 - 0.0
17/08:00pm 23.8 22.2 7.8 36 8.5 SSW 6 7 3 4 1014.1 - 0.0
17/07:30pm 24.4 22.9 8.4 36 8.6 W 6 7 3 4 1013.8 - 0.0
17/07:00pm 25.9 24.9 8.8 34 9.4 W 4 7 2 4 1013.2 - 0.0
17/06:30pm 27.8 26.1 7.6 28 10.9 NW 6 7 3 4 1012.7 - 0.0
17/06:00pm 29.7 28.0 8.2 26 11.9 NNW 7 7 4 4 1012.2 1011.9 0.0
17/05:30pm 31.9 30.2 8.2 23 13.2 WNW 7 11 4 6 1012.0 - 0.0
17/05:00pm 32.7 29.7 7.5 21 14.0 NW 13 22 7 12 1011.7 - 0.0
17/04:30pm 33.1 30.1 7.9 21 14.1 WNW 13 15 7 8 1011.5 - 0.0
17/04:00pm 33.3 30.9 8.7 22 13.9 WNW 11 22 6 12 1011.3 - 0.0
17/03:30pm 33.1 31.2 10.4 25 13.2 WNW 11 19 6 10 1011.3 - 0.0
17/03:00pm 32.9 30.7 10.9 26 12.9 NW 13 20 7 11 1011.6 1011.3 0.0
17/02:30pm 32.8 31.3 11.9 28 12.4 WNW 11 20 6 11 1011.9 - 0.0
17/02:00pm 31.9 29.6 11.7 29 11.9 WNW 15 30 8 16 1012.4 - 0.0
17/01:30pm 30.7 29.7 13.5 35 10.4 N 11 20 6 11 1012.8 - 0.0
17/01:00pm 30.3 28.6 13.6 36 10.1 NNW 15 24 8 13 1013.4 - 0.0
17/12:30pm 29.0 27.2 13.2 37 9.4 NNW 15 24 8 13 1014.0 - 0.0
17/12:00pm 28.6 26.5 13.7 40 8.9 N 17 26 9 14 1014.6 1014.2 0.0
17/11:30am 27.2 26.2 14.6 46 7.6 NNW 13 20 7 11 1015.3 - 0.0
17/11:00am 26.5 25.1 14.6 48 7.2 NNW 15 20 8 11 1015.8 - 0.0
17/10:30am 25.3 23.2 14.7 51 6.4 NNW 19 26 10 14 1016.3 - 0.0
17/10:00am 24.4 22.8 15.1 56 5.6 WNW 17 22 9 12 1016.6 - 0.0
17/09:30am 22.7 21.4 14.8 61 4.7 NW 15 20 8 11 1016.7 - 0.0
17/09:00am 21.5 20.5 14.6 65 4.1 NW 13 19 7 10 1016.7 1016.4 0.0
17/08:30am 20.0 18.6 14.4 70 3.3 NNW 15 22 8 12 1016.6 - 0.0
17/08:00am 18.2 17.7 13.7 75 2.6 N 9 11 5 6 1016.5 - 0.0
17/07:30am 16.8 16.4 14.1 84 1.6 N 9 13 5 7 1016.2 - 0.0
17/07:00am 14.7 14.5 13.6 93 0.6 NNE 7 9 4 5 1016.0 - 0.0
17/06:30am 14.1 13.5 13.6 97 0.3 NNE 9 11 5 6 1015.6 - 0.0
17/06:00am 13.5 12.7 12.9 96 0.3 NNE 9 11 5 6 1015.3 1014.9 0.0
17/05:30am 13.5 13.2 13.2 98 0.2 NE 7 11 4 6 1015.0 - 0.0
17/05:00am 14.0 13.8 13.7 98 0.2 ENE 7 7 4 4 1014.6 - 0.0
17/04:30am 14.5 14.7 14.2 98 0.2 ENE 6 6 3 3 1014.4 - 0.0
17/04:00am 14.3 14.2 14.0 98 0.2 ENE 7 7 4 4 1014.2 - 0.0
17/03:30am 14.2 13.8 13.1 93 0.6 ENE 7 7 4 4 1014.3 - 0.0
17/03:00am 15.7 15.8 14.4 92 0.7 NE 7 9 4 5 1014.3 1013.9 0.0
17/02:30am 16.3 16.6 14.5 89 1.0 NNE 6 7 3 4 1014.3 - 0.0
17/02:00am 16.4 16.5 14.4 88 1.2 NE 7 7 4 4 1014.4 - 0.0
17/01:30am 17.1 17.2 14.4 84 1.6 NE 7 9 4 5 1014.5 - 0.0
17/01:00am 17.5 17.6 14.4 82 1.8 NE 7 9 4 5 1014.5 - 0.0
17/12:30am 17.6 17.1 13.9 79 2.1 NE 9 11 5 6 1014.5 - 0.0
17/12:00am 16.3 15.4 11.5 73 2.6 E 7 9 4 5 1014.7 1014.3 0.0
 
Date/Time
EST
Temp
°C
App
Temp
°C
Dew
Point
°C
Rel
Hum
%
Delta-T
°C
Wind Press
QNH
hPa
Press
MSL
hPa
Rain since
9am
mm
Dir  Spd
km/h
Gust
km/h
Spd
kts
Gust
kts
16/11:30pm 18.9 17.8 11.9 64 3.9 NNE 9 13 5 7 1014.6 - 0.0

Other Formats:

Comma delimited format used in spreadsheet applications
http://www.bom.gov.au/fwo/IDQ60801/IDQ60801.94363.axf

JavaScript Object Notation format (JSON) in row-major order
http://www.bom.gov.au/fwo/IDQ60801/IDQ60801.94363.json